createdAt,value
2018-04-02T00:01:35.157Z,97338.05
2018-04-02T00:04:01.410Z,97330.27
2018-04-02T00:06:27.670Z,97336.20
2018-04-02T00:08:53.937Z,97337.35
2018-04-02T00:11:20.217Z,97329.56
2018-04-02T00:13:46.524Z,97334.10
2018-04-02T00:16:12.782Z,97337.66
2018-04-02T00:18:39.101Z,97341.89
2018-04-02T00:21:05.344Z,97338.98
2018-04-02T00:23:31.604Z,97343.86
2018-04-02T00:25:57.937Z,97345.27
2018-04-02T00:28:24.197Z,97342.74
2018-04-02T00:30:50.448Z,97341.33
2018-04-02T00:33:16.686Z,97345.92
2018-04-02T00:35:42.993Z,97340.30
2018-04-02T00:38:09.238Z,97341.50
2018-04-02T00:40:35.509Z,97341.80
2018-04-02T00:43:01.821Z,97342.52
2018-04-02T00:45:28.088Z,97339.86
2018-04-02T00:47:54.329Z,97339.13
2018-04-02T00:50:20.593Z,97349.25
2018-04-02T00:52:46.857Z,97352.20
2018-04-02T00:55:13.202Z,97348.27
2018-04-02T00:57:39.497Z,97350.79
2018-04-02T01:00:05.788Z,97348.64
2018-04-02T01:02:32.076Z,97347.05
2018-04-02T01:04:58.377Z,97347.98
2018-04-02T01:07:24.637Z,97347.98
2018-04-02T01:09:50.863Z,97348.48
2018-04-02T01:12:17.129Z,97352.97
2018-04-02T01:14:43.375Z,97349.58
2018-04-02T01:17:09.635Z,97346.47
2018-04-02T01:19:35.896Z,97351.69
2018-04-02T01:22:02.134Z,97339.86
2018-04-02T01:24:28.400Z,97342.89
2018-04-02T01:26:54.633Z,97347.01
2018-04-02T01:29:20.923Z,97344.65
2018-04-02T01:31:47.157Z,97340.72
2018-04-02T01:34:13.514Z,97339.91
2018-04-02T01:36:39.740Z,97342.52
2018-04-02T01:39:05.991Z,97343.66
2018-04-02T01:41:32.246Z,97340.02
2018-04-02T01:43:58.484Z,97344.17
2018-04-02T01:46:24.745Z,97347.78
2018-04-02T01:48:51.177Z,97356.17
2018-04-02T01:51:17.437Z,97347.19
2018-04-02T01:53:43.727Z,97345.64
2018-04-02T01:56:09.981Z,97356.07
2018-04-02T01:58:36.221Z,97347.87
2018-04-02T02:01:02.486Z,97352.77
2018-04-02T02:03:28.756Z,97344.90
2018-04-02T02:05:55.037Z,97355.25
2018-04-02T02:08:21.299Z,97349.85
2018-04-02T02:10:47.539Z,97348.65
2018-04-02T02:13:13.879Z,97345.28
2018-04-02T02:15:40.125Z,97348.33
2018-04-02T02:18:06.398Z,97355.39
2018-04-02T02:20:32.674Z,97351.66
2018-04-02T02:22:58.952Z,97354.00
2018-04-02T02:25:25.220Z,97344.50
2018-04-02T02:27:51.451Z,97354.84
2018-04-02T02:30:17.724Z,97359.49
2018-04-02T02:32:44.003Z,97359.13
2018-04-02T02:35:10.297Z,97354.84
2018-04-02T02:37:36.533Z,97350.80
2018-04-02T02:40:02.829Z,97353.28
2018-04-02T02:42:29.105Z,97352.78
2018-04-02T02:44:55.407Z,97358.26
2018-04-02T02:47:21.714Z,97355.47
2018-04-02T02:49:47.948Z,97364.42
2018-04-02T02:52:14.226Z,97361.73
2018-04-02T02:54:40.496Z,97370.38
2018-04-02T02:57:06.762Z,97373.83
2018-04-02T02:59:32.997Z,97372.90
2018-04-02T03:01:59.293Z,97375.59
2018-04-02T03:04:25.547Z,97372.47
2018-04-02T03:06:51.808Z,97373.89
2018-04-02T03:09:18.093Z,97366.05
2018-04-02T03:11:44.342Z,97370.55
2018-04-02T03:14:10.654Z,97370.28
2018-04-02T03:16:36.885Z,97370.77
2018-04-02T03:19:03.162Z,97369.56
2018-04-02T03:21:29.390Z,97372.26
2018-04-02T03:23:55.665Z,97369.94
2018-04-02T03:26:21.901Z,97373.12
2018-04-02T03:28:48.137Z,97367.20
2018-04-02T03:31:14.411Z,97372.09
2018-04-02T03:33:40.649Z,97369.86
2018-04-02T03:36:06.923Z,97374.73
2018-04-02T03:38:33.160Z,97368.75
2018-04-02T03:40:59.436Z,97370.06
2018-04-02T03:43:25.677Z,97365.35
2018-04-02T03:45:51.953Z,97368.73
2018-04-02T03:48:18.204Z,97376.52
2018-04-02T03:50:44.453Z,97369.45
2018-04-02T03:53:10.751Z,97376.86
2018-04-02T03:55:37.025Z,97375.73
2018-04-02T03:58:03.281Z,97375.29
2018-04-02T04:00:29.522Z,97378.52
2018-04-02T04:02:55.805Z,97380.25
2018-04-02T04:05:22.056Z,97385.69
2018-04-02T04:07:48.360Z,97381.04
2018-04-02T04:10:14.615Z,97381.22
2018-04-02T04:12:40.905Z,97385.94
2018-04-02T04:15:07.181Z,97384.38
2018-04-02T04:17:33.451Z,97385.97
2018-04-02T04:19:59.821Z,97380.81
2018-04-02T04:22:26.073Z,97386.23
2018-04-02T04:24:52.351Z,97388.36
2018-04-02T04:27:18.646Z,97382.91
2018-04-02T04:29:44.947Z,97389.11
2018-04-02T04:32:11.193Z,97391.31
2018-04-02T04:34:37.458Z,97390.87
2018-04-02T04:37:03.763Z,97393.92
2018-04-02T04:39:30.010Z,97393.06
2018-04-02T04:41:56.292Z,97397.83
2018-04-02T04:44:22.544Z,97405.52
2018-04-02T04:46:48.824Z,97398.08
2018-04-02T04:49:15.098Z,97395.13
2018-04-02T04:51:41.388Z,97392.78
2018-04-02T04:54:07.993Z,97393.20
2018-04-02T04:56:34.253Z,97395.13
2018-04-02T04:59:00.525Z,97391.84
2018-04-02T05:01:26.789Z,97389.52
2018-04-02T05:03:53.117Z,97390.92
2018-04-02T05:06:19.434Z,97390.69
2018-04-02T05:08:45.714Z,97393.58
2018-04-02T05:11:11.957Z,97396.25
2018-04-02T05:13:38.240Z,97401.23
2018-04-02T05:16:04.521Z,97399.05
2018-04-02T05:18:30.766Z,97408.83
2018-04-02T05:20:57.070Z,97407.47
2018-04-02T05:23:23.376Z,97413.84
2018-04-02T05:25:49.654Z,97406.50
2018-04-02T05:28:15.902Z,97412.03
2018-04-02T05:30:42.170Z,97412.50
2018-04-02T05:33:08.429Z,97418.52
2018-04-02T05:35:34.714Z,97412.76
2018-04-02T05:38:00.952Z,97414.07
2018-04-02T05:40:27.189Z,97416.20
2018-04-02T05:42:53.456Z,97415.20
2018-04-02T05:45:19.710Z,97414.44
2018-04-02T05:47:45.996Z,97421.11
2018-04-02T05:50:12.234Z,97421.98
2018-04-02T05:52:38.496Z,97425.17
2018-04-02T05:55:04.735Z,97426.34
2018-04-02T05:57:30.992Z,97427.09
2018-04-02T05:59:57.257Z,97428.64
2018-04-02T06:02:23.528Z,97427.36
2018-04-02T06:04:49.825Z,97426.55
2018-04-02T06:07:16.092Z,97433.10
2018-04-02T06:09:42.372Z,97430.56
2018-04-02T06:12:08.637Z,97438.38
2018-04-02T06:14:34.902Z,97438.11
2018-04-02T06:17:01.133Z,97438.91
2018-04-02T06:19:27.386Z,97440.09
2018-04-02T06:21:53.677Z,97442.69
2018-04-02T06:24:19.917Z,97443.64
2018-04-02T06:26:46.220Z,97442.91
2018-04-02T06:29:12.465Z,97436.98
2018-04-02T06:31:38.739Z,97437.80
2018-04-02T06:34:05.021Z,97432.84
2018-04-02T06:36:31.281Z,97441.59
2018-04-02T06:38:57.546Z,97443.81
2018-04-02T06:41:23.772Z,97436.34
2018-04-02T06:43:50.041Z,97441.08
2018-04-02T06:46:16.285Z,97439.90
2018-04-02T06:48:42.557Z,97444.59
2018-04-02T06:51:08.814Z,97441.95
2018-04-02T06:53:35.092Z,97441.20
2018-04-02T06:56:01.329Z,97441.17
2018-04-02T06:58:27.614Z,97451.89
2018-04-02T07:00:53.882Z,97449.48
2018-04-02T07:03:20.144Z,97449.97
2018-04-02T07:05:46.423Z,97440.70
2018-04-02T07:08:12.702Z,97448.92
2018-04-02T07:10:38.973Z,97456.06
2018-04-02T07:13:05.220Z,97447.92
2018-04-02T07:15:31.501Z,97448.33
2018-04-02T07:17:57.769Z,97454.20
2018-04-02T07:20:24.049Z,97458.55
2018-04-02T07:22:50.416Z,97455.06
2018-04-02T07:25:16.668Z,97454.84
2018-04-02T07:27:42.975Z,97455.46
2018-04-02T07:30:09.225Z,97454.00
2018-04-02T07:32:35.525Z,97456.09
2018-04-02T07:35:01.768Z,97455.03
2018-04-02T07:37:28.041Z,97454.05
2018-04-02T07:39:54.374Z,97446.77
2018-04-02T07:42:20.677Z,97452.33
2018-04-02T07:44:46.937Z,97451.64
2018-04-02T07:47:13.225Z,97456.39
2018-04-02T07:49:39.540Z,97454.56
2018-04-02T07:52:05.776Z,97461.18
2018-04-02T07:54:32.567Z,97454.77
2018-04-02T07:56:59.135Z,97443.66
2018-04-02T07:59:25.698Z,97456.34
2018-04-02T08:01:53.378Z,97448.37
2018-04-02T08:04:19.888Z,97450.47
2018-04-02T08:06:46.136Z,97452.84
2018-04-02T08:09:12.789Z,97452.91
2018-04-02T08:11:39.263Z,97446.89
2018-04-02T08:14:05.665Z,97451.77
2018-04-02T08:16:31.956Z,97444.33
2018-04-02T08:18:58.200Z,97448.56
2018-04-02T08:21:24.548Z,97450.10
2018-04-02T08:23:50.814Z,97458.66
2018-04-02T08:26:17.405Z,97464.69
2018-04-02T08:28:43.800Z,97465.34
2018-04-02T08:31:10.297Z,97466.75
2018-04-02T08:33:36.640Z,97471.34
2018-04-02T08:36:02.933Z,97463.66
2018-04-02T08:38:29.347Z,97466.93
2018-04-02T08:40:55.786Z,97470.34
2018-04-02T08:43:22.146Z,97466.75
2018-04-02T08:45:48.575Z,97467.77
2018-04-02T08:48:14.894Z,97464.91
2018-04-02T08:50:41.423Z,97466.14
2018-04-02T08:53:07.771Z,97458.09
2018-04-02T08:55:34.261Z,97463.61
2018-04-02T08:58:00.673Z,97454.86
2018-04-02T09:00:27.716Z,97461.52
2018-04-02T09:02:54.018Z,97459.07
2018-04-02T09:05:20.524Z,97455.60
2018-04-02T09:07:46.827Z,97455.93
2018-04-02T09:10:13.166Z,97452.81
2018-04-02T09:12:39.458Z,97452.59
2018-04-02T09:15:05.757Z,97443.95
2018-04-02T09:17:32.020Z,97447.75
2018-04-02T09:19:58.414Z,97443.91
2018-04-02T09:22:24.737Z,97441.36
2018-04-02T09:24:51.030Z,97435.05
2018-04-02T09:27:17.401Z,97434.88
2018-04-02T09:29:43.692Z,97438.75
2018-04-02T09:32:09.974Z,97425.97
2018-04-02T09:34:36.288Z,97431.09
2018-04-02T09:37:02.579Z,97425.23
2018-04-02T09:39:28.869Z,97424.52
2018-04-02T09:41:55.120Z,97432.00
2018-04-02T09:44:21.403Z,97432.22
2018-04-02T09:46:47.653Z,97428.73
2018-04-02T09:49:14.045Z,97419.50
2018-04-02T09:51:40.301Z,97420.13
2018-04-02T09:54:06.647Z,97409.53
2018-04-02T09:56:32.916Z,97415.25
2018-04-02T09:58:59.222Z,97404.99
2018-04-02T10:01:28.540Z,97405.19
2018-04-02T10:03:54.801Z,97402.02
2018-04-02T10:06:21.081Z,97397.44
2018-04-02T10:08:47.324Z,97390.25
2018-04-02T10:11:13.745Z,97393.77
2018-04-02T10:13:39.988Z,97390.07
2018-04-02T10:16:06.253Z,97390.41
2018-04-02T10:18:32.529Z,97384.85
2018-04-02T10:20:58.774Z,97394.37
2018-04-02T10:23:25.045Z,97382.81
2018-04-02T10:25:51.293Z,97383.89
2018-04-02T10:28:17.663Z,97377.25
2018-04-02T10:30:43.904Z,97370.70
2018-04-02T10:33:10.196Z,97370.48
2018-04-02T10:35:36.486Z,97364.91
2018-04-02T10:38:02.764Z,97358.67
2018-04-02T10:40:29.046Z,97363.50
2018-04-02T10:42:55.326Z,97353.49
2018-04-02T10:45:21.651Z,97358.08
2018-04-02T10:47:47.916Z,97347.43
2018-04-02T10:50:14.197Z,97341.27
2018-04-02T10:52:40.507Z,97344.67
2018-04-02T10:55:06.819Z,97349.36
2018-04-02T10:57:33.065Z,97346.09
2018-04-02T10:59:59.312Z,97341.91
2018-04-02T11:02:25.594Z,97340.69
2018-04-02T11:04:51.846Z,97335.29
2018-04-02T11:07:18.129Z,97336.76
2018-04-02T11:09:44.374Z,97333.59
2018-04-02T11:12:10.642Z,97343.98
2018-04-02T11:14:36.912Z,97327.75
2018-04-02T11:17:03.251Z,97340.92
2018-04-02T11:19:29.521Z,97328.66
2018-04-02T11:21:55.793Z,97330.69
2018-04-02T11:24:22.081Z,97326.73
2018-04-02T11:26:48.417Z,97330.98
2018-04-02T11:29:14.710Z,97322.41
2018-04-02T11:31:40.957Z,97313.92
2018-04-02T11:34:07.250Z,97314.98
2018-04-02T11:36:33.547Z,97308.36
2018-04-02T11:38:59.869Z,97313.09
2018-04-02T11:41:26.116Z,97303.87
2018-04-02T11:43:52.380Z,97299.73
2018-04-02T11:46:18.698Z,97300.98
2018-04-02T11:48:45.017Z,97302.90
2018-04-02T11:51:11.346Z,97294.77
2018-04-02T11:53:37.622Z,97288.59
2018-04-02T11:56:03.929Z,97300.24
2018-04-02T11:58:30.180Z,97291.39
2018-04-02T12:00:56.527Z,97285.88
2018-04-02T12:03:22.784Z,97275.09
2018-04-02T12:05:49.041Z,97285.27
2018-04-02T12:08:15.326Z,97285.69
2018-04-02T12:10:41.621Z,97294.15
2018-04-02T12:13:08.082Z,97287.62
2018-04-02T12:15:34.350Z,97279.05
2018-04-02T12:18:00.785Z,97289.97
2018-04-02T12:20:27.053Z,97287.95
2018-04-02T12:22:53.372Z,97277.44
2018-04-02T12:25:19.834Z,97286.11
2018-04-02T12:27:46.125Z,97285.28
2018-04-02T12:30:12.463Z,97282.27
2018-04-02T12:32:38.824Z,97273.34
2018-04-02T12:35:05.466Z,97277.98
2018-04-02T12:37:31.749Z,97267.91
2018-04-02T12:39:58.148Z,97255.83
2018-04-02T12:42:24.564Z,97239.87
2018-04-02T12:44:50.833Z,97248.61
2018-04-02T12:47:17.143Z,97252.34
2018-04-02T12:49:43.433Z,97249.66
2018-04-02T12:52:09.741Z,97248.36
2018-04-02T12:54:36.039Z,97249.95
2018-04-02T12:57:02.407Z,97236.28
2018-04-02T12:59:28.644Z,97228.55
2018-04-02T13:01:54.953Z,97239.39
2018-04-02T13:04:21.205Z,97238.34
2018-04-02T13:06:47.456Z,97235.50
2018-04-02T13:09:13.761Z,97232.60
2018-04-02T13:11:40.052Z,97225.63
2018-04-02T13:14:06.398Z,97216.94
2018-04-02T13:16:32.665Z,97212.47
2018-04-02T13:18:58.973Z,97204.24
2018-04-02T13:21:25.224Z,97201.20
2018-04-02T13:23:51.594Z,97208.28
2018-04-02T13:26:17.853Z,97197.11
2018-04-02T13:28:44.125Z,97190.84
2018-04-02T13:31:10.425Z,97180.78
2018-04-02T13:33:36.786Z,97182.82
2018-04-02T13:36:03.379Z,97179.67
2018-04-02T13:38:29.633Z,97168.42
2018-04-02T13:40:55.960Z,97170.98
2018-04-02T13:43:22.232Z,97169.99
2018-04-02T13:45:48.635Z,97172.36
2018-04-02T13:48:14.885Z,97164.52
2018-04-02T13:50:41.157Z,97163.94
2018-04-02T13:53:07.496Z,97176.71
2018-04-02T13:55:33.766Z,97179.80
2018-04-02T13:58:00.047Z,97183.91
2018-04-02T14:00:26.300Z,97170.12
2018-04-02T14:02:52.576Z,97179.08
2018-04-02T14:05:18.882Z,97172.33
2018-04-02T14:07:45.182Z,97171.16
2018-04-02T14:10:11.599Z,97170.64
2018-04-02T14:12:37.880Z,97171.33
2018-04-02T14:15:04.189Z,97153.81
2018-04-02T14:17:30.524Z,97153.03
2018-04-02T14:19:56.785Z,97151.05
2018-04-02T14:22:23.017Z,97144.84
2018-04-02T14:24:49.324Z,97147.25
2018-04-02T14:27:15.554Z,97149.08
2018-04-02T14:29:41.836Z,97134.18
2018-04-02T14:32:08.135Z,97123.39
2018-04-02T14:34:34.373Z,97113.84
2018-04-02T14:37:00.643Z,97117.91
2018-04-02T14:39:26.897Z,97115.71
2018-04-02T14:41:53.182Z,97121.27
2018-04-02T14:44:19.412Z,97111.13
2018-04-02T14:46:45.716Z,97117.70
2018-04-02T14:49:11.956Z,97119.52
2018-04-02T14:51:38.208Z,97115.08
2018-04-02T14:54:04.497Z,97106.91
2018-04-02T14:56:30.766Z,97105.75
2018-04-02T14:58:57.065Z,97105.01
2018-04-02T15:01:23.322Z,97101.10
2018-04-02T15:03:49.597Z,97097.22
2018-04-02T15:06:15.835Z,97097.27
2018-04-02T15:08:42.191Z,97090.69
2018-04-02T15:11:08.438Z,97094.92
2018-04-02T15:13:35.841Z,97092.75
2018-04-02T15:16:02.133Z,97083.10
2018-04-02T15:18:28.415Z,97083.89
2018-04-02T15:20:54.672Z,97075.27
2018-04-02T15:23:20.920Z,97071.27
2018-04-02T15:25:47.220Z,97081.72
2018-04-02T15:28:13.545Z,97074.31
2018-04-02T15:30:39.828Z,97075.00
2018-04-02T15:33:06.101Z,97074.22
2018-04-02T15:35:32.437Z,97060.20
2018-04-02T15:37:58.734Z,97064.88
2018-04-02T15:40:24.999Z,97065.14
2018-04-02T15:42:51.286Z,97055.16
2018-04-02T15:45:17.640Z,97052.47
2018-04-02T15:47:43.920Z,97039.44
2018-04-02T15:50:10.205Z,97031.19
2018-04-02T15:52:36.484Z,97021.97
2018-04-02T15:55:02.792Z,97028.45
2018-04-02T15:57:29.048Z,97029.44
2018-04-02T15:59:55.322Z,97016.22
2018-04-02T16:02:21.661Z,97011.20
2018-04-02T16:04:47.951Z,96999.92
2018-04-02T16:07:14.192Z,97016.15
2018-04-02T16:09:40.457Z,97013.02
2018-04-02T16:12:06.692Z,97010.48
2018-04-02T16:14:32.929Z,97009.81
2018-04-02T16:16:59.193Z,97011.92
2018-04-02T16:19:25.585Z,97015.50
2018-04-02T16:21:51.860Z,97008.45
2018-04-02T16:24:18.153Z,97009.75
2018-04-02T16:26:44.417Z,97014.91
2018-04-02T16:29:10.872Z,97010.05
2018-04-02T16:31:37.151Z,97008.72
2018-04-02T16:34:03.431Z,97006.52
2018-04-02T16:36:29.693Z,97010.94
2018-04-02T16:38:55.949Z,97002.98
2018-04-02T16:41:22.190Z,96998.59
2018-04-02T16:43:48.490Z,97005.30
2018-04-02T16:46:14.719Z,96998.87
2018-04-02T16:48:40.993Z,96994.81
2018-04-02T16:51:07.268Z,97003.56
2018-04-02T16:53:34.080Z,97001.92
2018-04-02T16:56:00.355Z,97013.08
2018-04-02T16:58:26.621Z,97018.50
2018-04-02T17:00:52.933Z,97016.39
2018-04-02T17:03:19.220Z,97004.58
2018-04-02T17:05:45.497Z,97007.78
2018-04-02T17:08:11.784Z,97012.38
2018-04-02T17:10:38.024Z,97002.97
2018-04-02T17:13:04.308Z,97006.99
2018-04-02T17:15:30.552Z,97003.66
2018-04-02T17:17:56.812Z,97007.97
2018-04-02T17:20:23.059Z,97011.78
2018-04-02T17:22:49.312Z,97008.75
2018-04-02T17:25:15.588Z,97004.22
2018-04-02T17:27:42.050Z,97006.79
2018-04-02T17:30:08.317Z,97005.55
2018-04-02T17:32:34.584Z,97006.05
2018-04-02T17:35:00.851Z,96997.22
2018-04-02T17:37:27.112Z,96999.52
2018-04-02T17:39:53.432Z,96998.41
2018-04-02T17:42:19.673Z,96989.18
2018-04-02T17:44:45.985Z,96989.20
2018-04-02T17:47:12.229Z,96986.31
2018-04-02T17:49:38.506Z,96987.09
2018-04-02T17:52:04.785Z,96994.31
2018-04-02T17:54:31.048Z,96999.73
2018-04-02T17:56:57.353Z,96999.22
2018-04-02T17:59:23.644Z,97000.48
2018-04-02T18:01:49.913Z,96998.09
2018-04-02T18:04:16.168Z,97004.92
2018-04-02T18:06:42.446Z,96998.48
2018-04-02T18:09:08.744Z,97001.00
2018-04-02T18:11:35.016Z,97001.89
2018-04-02T18:14:01.270Z,96994.77
2018-04-02T18:16:27.633Z,96995.92
2018-04-02T18:18:54.005Z,96991.76
2018-04-02T18:21:20.253Z,96986.33
2018-04-02T18:23:46.518Z,96987.33
2018-04-02T18:26:12.781Z,96986.20
2018-04-02T18:28:39.149Z,96983.17
2018-04-02T18:31:05.384Z,96986.06
2018-04-02T18:33:31.685Z,96985.17
2018-04-02T18:35:58.012Z,96980.77
2018-04-02T18:38:24.256Z,96983.77
2018-04-02T18:40:50.526Z,96978.74
2018-04-02T18:43:16.812Z,96976.82
2018-04-02T18:45:43.081Z,96979.21
2018-04-02T18:48:09.315Z,96982.52
2018-04-02T18:50:35.601Z,96987.92
2018-04-02T18:53:01.951Z,96980.84
2018-04-02T18:55:28.188Z,96975.81
2018-04-02T18:57:54.472Z,96977.95
2018-04-02T19:00:20.717Z,96981.61
2018-04-02T19:02:47.058Z,96979.47
2018-04-02T19:05:13.283Z,96972.80
2018-04-02T19:07:39.574Z,96975.93
2018-04-02T19:10:05.943Z,96979.34
2018-04-02T19:12:32.473Z,96980.86
2018-04-02T19:14:59.057Z,96975.56
2018-04-02T19:17:25.321Z,96977.30
2018-04-02T19:19:51.732Z,96978.69
2018-04-02T19:22:18.068Z,96969.24
2018-04-02T19:24:44.318Z,96974.16
2018-04-02T19:27:10.608Z,96970.36
2018-04-02T19:29:37.386Z,96970.34
2018-04-02T19:32:03.745Z,96974.89
2018-04-02T19:34:30.146Z,96967.20
2018-04-02T19:36:56.521Z,96968.33
2018-04-02T19:39:22.773Z,96963.16
2018-04-02T19:41:49.205Z,96960.77
2018-04-02T19:44:16.331Z,96956.36
2018-04-02T19:46:42.598Z,96952.20
2018-04-02T19:49:08.929Z,96954.06
2018-04-02T19:51:35.185Z,96952.30
2018-04-02T19:54:01.444Z,96950.92
2018-04-02T19:56:27.697Z,96944.73
2018-04-02T19:58:54.064Z,96950.15
2018-04-02T20:01:20.320Z,96945.48
2018-04-02T20:03:46.614Z,96947.38
2018-04-02T20:06:12.864Z,96942.72
2018-04-02T20:08:39.105Z,96935.66
2018-04-02T20:11:05.375Z,96931.01
2018-04-02T20:13:31.679Z,96932.27
2018-04-02T20:15:57.967Z,96929.33
2018-04-02T20:18:24.301Z,96927.70
2018-04-02T20:20:50.549Z,96924.02
2018-04-02T20:23:16.820Z,96925.04
2018-04-02T20:25:43.585Z,96919.37
2018-04-02T20:28:09.889Z,96914.58
2018-04-02T20:30:36.129Z,96913.70
2018-04-02T20:33:02.586Z,96909.53
2018-04-02T20:35:28.868Z,96905.27
2018-04-02T20:37:55.106Z,96915.48
2018-04-02T20:40:21.481Z,96899.82
2018-04-02T20:42:47.760Z,96908.27
2018-04-02T20:45:14.426Z,96901.47
2018-04-02T20:47:40.676Z,96897.58
2018-04-02T20:50:07.028Z,96895.05
2018-04-02T20:52:33.445Z,96892.91
2018-04-02T20:54:59.685Z,96889.62
2018-04-02T20:57:26.333Z,96890.98
2018-04-02T20:59:52.589Z,96883.79
2018-04-02T21:02:18.872Z,96882.29
2018-04-02T21:04:45.325Z,96889.95
2018-04-02T21:07:11.605Z,96884.80
2018-04-02T21:09:38.184Z,96882.80
2018-04-02T21:12:04.494Z,96878.65
2018-04-02T21:14:30.734Z,96873.98
2018-04-02T21:16:57.170Z,96875.09
2018-04-02T21:19:23.584Z,96871.22
2018-04-02T21:21:50.055Z,96871.83
2018-04-02T21:24:16.352Z,96871.69
2018-04-02T21:26:42.596Z,96870.93
2018-04-02T21:29:08.979Z,96867.77
2018-04-02T21:31:35.235Z,96868.66
2018-04-02T21:34:01.582Z,96865.73
2018-04-02T21:36:27.873Z,96858.44
2018-04-02T21:38:54.143Z,96851.89
2018-04-02T21:41:20.688Z,96858.19
2018-04-02T21:43:46.937Z,96852.63
2018-04-02T21:46:13.475Z,96844.44
2018-04-02T21:48:39.717Z,96849.60
2018-04-02T21:51:06.020Z,96848.44
2018-04-02T21:53:32.507Z,96838.63
2018-04-02T21:55:58.744Z,96841.12
2018-04-02T21:58:25.140Z,96839.13
2018-04-02T22:00:51.461Z,96839.90
2018-04-02T22:03:17.718Z,96835.98
2018-04-02T22:05:44.273Z,96834.70
2018-04-02T22:08:10.547Z,96830.16
2018-04-02T22:10:36.921Z,96827.41
2018-04-02T22:13:03.309Z,96826.03
2018-04-02T22:15:29.607Z,96824.64
2018-04-02T22:17:56.137Z,96821.86
2018-04-02T22:20:22.781Z,96814.28
2018-04-02T22:22:49.213Z,96824.38
2018-04-02T22:25:15.508Z,96807.48
2018-04-02T22:27:41.745Z,96808.77
2018-04-02T22:30:08.279Z,96809.02
2018-04-02T22:32:34.508Z,96803.59
2018-04-02T22:35:00.862Z,96805.09
2018-04-02T22:37:27.295Z,96802.44
2018-04-02T22:39:53.598Z,96800.94
2018-04-02T22:42:20.202Z,96791.38
2018-04-02T22:44:46.459Z,96796.55
2018-04-02T22:47:12.818Z,96802.97
2018-04-02T22:49:39.152Z,96789.12
2018-04-02T22:52:05.481Z,96788.22
2018-04-02T22:54:31.990Z,96788.51
2018-04-02T22:56:58.257Z,96794.44
2018-04-02T22:59:24.654Z,96788.38
2018-04-02T23:01:51.047Z,96789.02
2018-04-02T23:04:17.317Z,96782.34
2018-04-02T23:06:43.921Z,96783.59
2018-04-02T23:09:10.276Z,96785.36
2018-04-02T23:11:36.610Z,96776.80
2018-04-02T23:14:03.029Z,96777.41
2018-04-02T23:16:29.296Z,96771.88
2018-04-02T23:18:55.809Z,96782.97
2018-04-02T23:21:22.097Z,96775.01
2018-04-02T23:23:48.432Z,96780.45
2018-04-02T23:26:14.693Z,96790.27
2018-04-02T23:28:40.936Z,96787.77
2018-04-02T23:31:07.213Z,96785.23
2018-04-02T23:33:33.468Z,96787.11
2018-04-02T23:35:59.740Z,96787.50
2018-04-02T23:38:26.012Z,96790.79
2018-04-02T23:40:52.262Z,96782.34
2018-04-02T23:43:18.528Z,96779.95
2018-04-02T23:45:44.771Z,96780.44
2018-04-02T23:48:11.028Z,96775.64
2018-04-02T23:50:37.290Z,96775.77
2018-04-02T23:53:03.569Z,96773.48
2018-04-02T23:55:29.809Z,96777.80
2018-04-02T23:57:56.084Z,96777.27
